createdAt,value
2022-07-31T00:00:27.891Z,99748.94
2022-07-31T00:02:55.307Z,99744.50
2022-07-31T00:05:23.995Z,99743.63
2022-07-31T00:07:52.809Z,99736.47
2022-07-31T00:10:20.137Z,99742.75
2022-07-31T00:12:47.095Z,99742.72
2022-07-31T00:15:14.120Z,99745.38
2022-07-31T00:17:43.187Z,99743.59
2022-07-31T00:20:13.497Z,99738.25
2022-07-31T00:22:42.236Z,99742.72
2022-07-31T00:25:11.361Z,99739.19
2022-07-31T00:27:39.584Z,99740.94
2022-07-31T00:30:07.335Z,99738.28
2022-07-31T00:32:34.642Z,99724.09
2022-07-31T00:35:01.931Z,99731.16
2022-07-31T00:37:28.903Z,99727.59
2022-07-31T00:39:55.842Z,99719.56
2022-07-31T00:42:26.078Z,99731.19
2022-07-31T00:44:53.131Z,99730.28
2022-07-31T00:47:22.315Z,99721.41
2022-07-31T00:49:51.496Z,99724.09
2022-07-31T00:52:18.479Z,99721.44
2022-07-31T00:54:45.448Z,99726.75
2022-07-31T00:57:12.431Z,99717.97
2022-07-31T00:59:39.507Z,99724.13
2022-07-31T01:02:08.393Z,99717.00
2022-07-31T01:04:35.603Z,99708.13
2022-07-31T01:07:03.625Z,99724.16
2022-07-31T01:09:31.065Z,99714.38
2022-07-31T01:12:16.336Z,99717.03
2022-07-31T01:14:54.294Z,99710.88
2022-07-31T01:17:23.235Z,99706.41
2022-07-31T01:19:52.973Z,99711.72
2022-07-31T01:23:05.974Z,99696.63
2022-07-31T01:26:00.623Z,99695.75
2022-07-31T01:29:07.594Z,99698.41
2022-07-31T01:31:43.916Z,99691.34
2022-07-31T01:34:42.515Z,99691.31
2022-07-31T01:37:23.741Z,99676.22
2022-07-31T01:39:59.740Z,99683.31
2022-07-31T01:42:29.015Z,99679.75
2022-07-31T01:45:01.870Z,99669.13
2022-07-31T01:47:31.647Z,99666.41
2022-07-31T01:50:00.032Z,99650.44
2022-07-31T01:52:30.074Z,99645.13
2022-07-31T01:54:59.741Z,99640.66
2022-07-31T01:57:29.868Z,99646.00
2022-07-31T02:00:02.168Z,99630.00
2022-07-31T02:02:30.547Z,99644.19
2022-07-31T02:04:58.291Z,99638.88
2022-07-31T02:07:26.709Z,99638.88
2022-07-31T02:09:58.520Z,99626.50
2022-07-31T02:12:33.088Z,99630.91
2022-07-31T02:15:09.215Z,99629.97
2022-07-31T02:17:37.583Z,99636.25
2022-07-31T02:20:08.111Z,99634.47
2022-07-31T02:22:35.659Z,99640.69
2022-07-31T02:25:06.760Z,99634.47
2022-07-31T02:27:57.027Z,99638.84
2022-07-31T02:30:22.931Z,99629.13
2022-07-31T02:32:50.993Z,99630.84
2022-07-31T02:35:18.914Z,99622.84
2022-07-31T02:37:50.462Z,99617.53
2022-07-31T02:40:19.063Z,99629.09
2022-07-31T02:42:47.631Z,99618.41
2022-07-31T02:45:15.356Z,99621.09
2022-07-31T02:47:42.927Z,99630.00
2022-07-31T02:50:10.969Z,99633.53
2022-07-31T02:52:38.892Z,99629.94
2022-07-31T02:55:06.435Z,99635.25
2022-07-31T02:57:33.425Z,99634.38
2022-07-31T03:00:00.546Z,99629.91
2022-07-31T03:02:36.945Z,99628.16
2022-07-31T03:05:05.384Z,99628.13
2022-07-31T03:07:32.326Z,99628.16
2022-07-31T03:09:59.329Z,99621.88
2022-07-31T03:12:26.521Z,99625.44
2022-07-31T03:14:55.278Z,99621.00
2022-07-31T03:17:22.604Z,99611.22
2022-07-31T03:19:49.711Z,99606.78
2022-07-31T03:22:16.875Z,99611.19
2022-07-31T03:24:44.519Z,99608.53
2022-07-31T03:27:11.495Z,99610.34
2022-07-31T03:29:41.773Z,99606.81
2022-07-31T03:32:10.556Z,99599.66
2022-07-31T03:34:37.521Z,99604.94
2022-07-31T03:37:06.989Z,99606.75
2022-07-31T03:39:34.247Z,99608.56
2022-07-31T03:42:03.529Z,99589.91
2022-07-31T03:44:32.831Z,99600.50
2022-07-31T03:47:00.401Z,99600.50
2022-07-31T03:49:28.337Z,99597.81
2022-07-31T03:51:55.878Z,99590.78
2022-07-31T03:54:22.929Z,99589.84
2022-07-31T03:56:52.532Z,99587.25
2022-07-31T03:59:20.482Z,99587.25
2022-07-31T04:02:10.434Z,99585.44
2022-07-31T04:04:37.608Z,99581.88
2022-07-31T04:07:05.989Z,99582.75
2022-07-31T04:09:33.317Z,99576.56
2022-07-31T04:12:00.692Z,99576.53
2022-07-31T04:14:27.964Z,99572.09
2022-07-31T04:16:54.906Z,99565.00
2022-07-31T04:19:21.915Z,99561.44
2022-07-31T04:21:50.416Z,99565.00
2022-07-31T04:24:18.386Z,99555.22
2022-07-31T04:26:45.558Z,99562.34
2022-07-31T04:29:12.584Z,99558.78
2022-07-31T04:31:39.553Z,99568.56
2022-07-31T04:34:06.802Z,99557.94
2022-07-31T04:36:33.887Z,99557.09
2022-07-31T04:39:01.613Z,99559.72
2022-07-31T04:41:28.976Z,99557.06
2022-07-31T04:43:57.991Z,99552.63
2022-07-31T04:46:25.578Z,99557.09
2022-07-31T04:48:52.875Z,99554.41
2022-07-31T04:51:24.394Z,99564.19
2022-07-31T04:53:51.791Z,99565.94
2022-07-31T04:56:36.028Z,99562.38
2022-07-31T04:59:12.883Z,99570.34
2022-07-31T05:01:41.937Z,99570.34
2022-07-31T05:04:11.187Z,99562.38
2022-07-31T05:06:45.247Z,99565.94
2022-07-31T05:09:19.603Z,99568.56
2022-07-31T05:11:52.536Z,99564.09
2022-07-31T05:14:21.491Z,99561.50
2022-07-31T05:16:49.636Z,99566.00
2022-07-31T05:19:17.341Z,99566.88
2022-07-31T05:21:53.435Z,99564.22
2022-07-31T05:24:33.025Z,99557.97
2022-07-31T05:27:02.708Z,99570.44
2022-07-31T05:29:31.295Z,99569.53
2022-07-31T05:32:00.027Z,99567.78
2022-07-31T05:34:31.500Z,99570.50
2022-07-31T05:37:02.165Z,99568.63
2022-07-31T05:39:30.388Z,99563.34
2022-07-31T05:41:57.602Z,99567.81
2022-07-31T05:44:24.851Z,99570.41
2022-07-31T05:49:19.831Z,99558.88
2022-07-31T05:51:47.264Z,99565.06
2022-07-31T05:54:14.667Z,99569.50
2022-07-31T05:56:41.721Z,99559.75
2022-07-31T05:59:09.777Z,99562.34
2022-07-31T06:01:37.946Z,99567.72
2022-07-31T06:04:04.980Z,99562.41
2022-07-31T06:06:34.481Z,99560.63
2022-07-31T06:09:04.515Z,99561.53
2022-07-31T06:11:32.144Z,99565.03
2022-07-31T06:13:59.110Z,99569.47
2022-07-31T06:16:26.110Z,99560.59
2022-07-31T06:18:53.075Z,99556.94
2022-07-31T06:23:45.982Z,99559.56
2022-07-31T06:26:13.362Z,99555.97
2022-07-31T06:28:49.019Z,99550.66
2022-07-31T06:31:22.017Z,99556.84
2022-07-31T06:33:51.050Z,99551.44
2022-07-31T06:36:19.592Z,99555.81
2022-07-31T06:38:46.627Z,99555.00
2022-07-31T06:41:33.812Z,99555.88
2022-07-31T06:44:00.883Z,99554.09
2022-07-31T06:46:28.195Z,99546.06
2022-07-31T06:48:55.277Z,99548.59
2022-07-31T06:51:31.303Z,99546.88
2022-07-31T06:54:00.446Z,99540.63
2022-07-31T06:56:31.984Z,99541.47
2022-07-31T06:58:59.539Z,99543.31
2022-07-31T07:01:26.593Z,99549.50
2022-07-31T07:03:53.824Z,99537.13
2022-07-31T07:06:21.288Z,99542.41
2022-07-31T07:08:48.246Z,99546.03
2022-07-31T07:11:15.618Z,99545.09
2022-07-31T07:13:46.228Z,99545.97
2022-07-31T07:16:15.200Z,99544.31
2022-07-31T07:18:43.319Z,99536.09
2022-07-31T07:21:10.828Z,99539.72
2022-07-31T07:23:38.006Z,99536.16
2022-07-31T07:26:05.432Z,99543.25
2022-07-31T07:28:32.999Z,99543.25
2022-07-31T07:31:00.039Z,99545.06
2022-07-31T07:33:41.439Z,99540.63
2022-07-31T07:36:24.010Z,99549.50
2022-07-31T07:38:55.420Z,99535.38
2022-07-31T07:41:25.102Z,99540.63
2022-07-31T07:43:53.032Z,99543.28
2022-07-31T07:46:24.210Z,99542.34
2022-07-31T07:48:51.683Z,99549.44
2022-07-31T07:51:19.781Z,99549.28
2022-07-31T07:53:46.798Z,99548.44
2022-07-31T07:56:13.771Z,99533.28
2022-07-31T07:58:40.940Z,99537.78
2022-07-31T08:01:08.462Z,99542.97
2022-07-31T08:03:49.405Z,99545.63
2022-07-31T08:06:20.263Z,99550.09
2022-07-31T08:08:47.830Z,99542.03
2022-07-31T08:11:17.282Z,99543.72
2022-07-31T08:13:50.129Z,99538.31
2022-07-31T08:16:19.404Z,99548.09
2022-07-31T08:18:46.803Z,99540.00
2022-07-31T08:21:13.755Z,99542.44
2022-07-31T08:23:40.741Z,99541.28
2022-07-31T08:26:10.615Z,99545.81
2022-07-31T08:28:38.589Z,99546.09
2022-07-31T08:31:05.725Z,99548.84
2022-07-31T08:33:35.739Z,99547.84
2022-07-31T08:36:04.462Z,99542.56
2022-07-31T08:38:31.429Z,99540.81
2022-07-31T08:40:58.385Z,99546.75
2022-07-31T08:44:02.575Z,99544.16
2022-07-31T08:46:13.275Z,99546.88
2022-07-31T08:48:43.639Z,99545.94
2022-07-31T08:51:14.045Z,99538.84
2022-07-31T08:53:43.933Z,99541.66
2022-07-31T08:56:11.350Z,99542.44
2022-07-31T08:58:39.912Z,99545.78
2022-07-31T09:01:11.261Z,99548.63
2022-07-31T09:03:38.685Z,99524.66
2022-07-31T09:06:06.791Z,99547.69
2022-07-31T09:08:36.238Z,99548.63
2022-07-31T09:11:10.016Z,99554.84
2022-07-31T09:13:37.603Z,99538.72
2022-07-31T09:16:06.267Z,99552.94
2022-07-31T09:18:33.503Z,99551.09
2022-07-31T09:21:07.073Z,99552.53
2022-07-31T09:23:43.532Z,99567.69
2022-07-31T09:26:10.504Z,99555.34
2022-07-31T09:28:46.912Z,99569.63
2022-07-31T09:31:14.972Z,99567.84
2022-07-31T09:33:46.730Z,99562.69
2022-07-31T09:36:32.398Z,99567.13
2022-07-31T09:39:27.043Z,99582.22
2022-07-31T09:41:58.289Z,99571.56
2022-07-31T09:44:43.675Z,99567.13
2022-07-31T09:47:28.034Z,99574.28
2022-07-31T09:50:04.484Z,99561.81
2022-07-31T09:52:32.777Z,99567.97
2022-07-31T09:55:17.029Z,99573.44
2022-07-31T09:57:55.436Z,99570.78
2022-07-31T10:00:23.773Z,99568.03
2022-07-31T10:02:54.613Z,99576.00
2022-07-31T10:05:26.747Z,99578.75
2022-07-31T10:07:58.082Z,99573.41
2022-07-31T10:10:28.410Z,99571.56
2022-07-31T10:12:59.719Z,99572.38
2022-07-31T10:15:28.343Z,99572.44
2022-07-31T10:17:56.648Z,99564.41
2022-07-31T10:20:26.687Z,99564.34
2022-07-31T10:22:59.384Z,99566.19
2022-07-31T10:25:29.607Z,99566.13
2022-07-31T10:27:57.469Z,99579.28
2022-07-31T10:30:28.511Z,99559.84
2022-07-31T10:32:57.085Z,99578.31
2022-07-31T10:35:24.271Z,99583.72
2022-07-31T10:38:19.042Z,99588.84
2022-07-31T10:40:55.904Z,99590.66
2022-07-31T10:44:09.514Z,99598.66
2022-07-31T10:46:37.022Z,99582.69
2022-07-31T10:49:08.712Z,99591.63
2022-07-31T10:51:50.495Z,99593.31
2022-07-31T10:54:17.564Z,99597.09
2022-07-31T10:56:46.340Z,99592.69
2022-07-31T10:59:13.543Z,99588.06
2022-07-31T11:01:53.092Z,99588.97
2022-07-31T11:04:29.238Z,99589.00
2022-07-31T11:06:56.567Z,99593.38
2022-07-31T11:09:25.217Z,99593.38
2022-07-31T11:11:52.621Z,99594.16
2022-07-31T11:14:30.917Z,99593.06
2022-07-31T11:16:57.948Z,99604.69
2022-07-31T11:19:25.818Z,99599.91
2022-07-31T11:21:57.334Z,99600.09
2022-07-31T11:24:24.486Z,99601.91
2022-07-31T11:26:57.387Z,99609.72
2022-07-31T11:29:59.337Z,99605.13
2022-07-31T11:32:26.756Z,99595.38
2022-07-31T11:34:56.793Z,99603.38
2022-07-31T11:37:46.526Z,99602.53
2022-07-31T11:40:22.166Z,99607.09
2022-07-31T11:43:10.342Z,99608.00
2022-07-31T11:45:49.894Z,99610.69
2022-07-31T11:48:19.342Z,99620.72
2022-07-31T11:50:48.773Z,99615.41
2022-07-31T11:53:17.600Z,99620.00
2022-07-31T11:56:05.383Z,99615.47
2022-07-31T11:58:32.419Z,99612.75
2022-07-31T12:01:02.225Z,99612.38
2022-07-31T12:03:34.174Z,99618.47
2022-07-31T12:06:01.573Z,99631.09
2022-07-31T12:08:29.656Z,99625.19
2022-07-31T12:10:59.874Z,99622.63
2022-07-31T12:13:28.112Z,99628.03
2022-07-31T12:16:00.501Z,99625.34
2022-07-31T12:18:29.119Z,99629.72
2022-07-31T12:21:05.716Z,99626.97
2022-07-31T12:23:52.396Z,99634.88
2022-07-31T12:26:25.919Z,99635.66
2022-07-31T12:29:05.996Z,99633.16
2022-07-31T12:31:51.736Z,99636.72
2022-07-31T12:34:40.885Z,99634.88
2022-07-31T12:37:13.962Z,99637.53
2022-07-31T12:40:00.222Z,99641.00
2022-07-31T12:42:40.705Z,99638.41
2022-07-31T12:45:18.188Z,99632.97
2022-07-31T12:47:51.402Z,99638.44
2022-07-31T12:50:20.902Z,99639.22
2022-07-31T12:52:48.246Z,99635.63
2022-07-31T12:55:17.018Z,99633.75
2022-07-31T12:57:50.535Z,99637.19
2022-07-31T13:00:22.780Z,99629.31
2022-07-31T13:02:52.026Z,99637.53
2022-07-31T13:05:19.798Z,99628.59
2022-07-31T13:07:47.355Z,99634.94
2022-07-31T13:10:14.813Z,99634.91
2022-07-31T13:12:50.299Z,99637.31
2022-07-31T13:15:23.431Z,99639.13
2022-07-31T13:17:51.178Z,99639.19
2022-07-31T13:20:19.271Z,99646.44
2022-07-31T13:22:46.379Z,99645.56
2022-07-31T13:25:13.801Z,99651.00
2022-07-31T13:27:41.852Z,99638.75
2022-07-31T13:30:10.821Z,99640.50
2022-07-31T13:32:37.787Z,99645.50
2022-07-31T13:35:25.417Z,99652.81
2022-07-31T13:37:54.021Z,99646.41
2022-07-31T13:40:41.059Z,99653.81
2022-07-31T13:43:08.193Z,99651.69
2022-07-31T13:45:35.337Z,99654.22
2022-07-31T13:48:04.443Z,99659.81
2022-07-31T13:50:37.282Z,99658.97
2022-07-31T13:53:04.679Z,99657.97
2022-07-31T13:55:32.058Z,99655.94
2022-07-31T13:58:01.071Z,99670.22
2022-07-31T14:00:30.593Z,99673.06
2022-07-31T14:02:58.129Z,99668.47
2022-07-31T14:05:27.495Z,99671.13
2022-07-31T14:07:56.388Z,99672.88
2022-07-31T14:10:43.463Z,99665.16
2022-07-31T14:13:15.644Z,99670.56
2022-07-31T14:15:43.097Z,99665.34
2022-07-31T14:18:10.057Z,99667.97
2022-07-31T14:20:37.216Z,99665.28
2022-07-31T14:23:05.129Z,99668.97
2022-07-31T14:25:35.177Z,99678.84
2022-07-31T14:28:02.445Z,99669.75
2022-07-31T14:30:29.666Z,99669.84
2022-07-31T14:32:57.258Z,99676.97
2022-07-31T14:35:24.292Z,99680.06
2022-07-31T14:37:51.306Z,99681.91
2022-07-31T14:40:18.598Z,99688.16
2022-07-31T14:42:45.677Z,99686.53
2022-07-31T14:45:12.977Z,99687.59
2022-07-31T14:47:39.992Z,99691.03
2022-07-31T14:50:12.057Z,99689.13
2022-07-31T14:52:40.776Z,99691.78
2022-07-31T14:55:08.964Z,99693.50
2022-07-31T14:57:35.910Z,99699.00
2022-07-31T15:00:03.695Z,99697.09
2022-07-31T15:02:30.672Z,99700.66
2022-07-31T15:04:57.633Z,99703.09
2022-07-31T15:07:46.992Z,99692.31
2022-07-31T15:10:14.642Z,99700.16
2022-07-31T15:12:41.767Z,99702.13
2022-07-31T15:15:09.683Z,99701.28
2022-07-31T15:17:36.731Z,99698.75
2022-07-31T15:20:04.361Z,99706.09
2022-07-31T15:22:31.361Z,99711.28
2022-07-31T15:24:58.332Z,99706.66
2022-07-31T15:27:25.715Z,99713.97
2022-07-31T15:30:00.172Z,99713.88
2022-07-31T15:32:39.193Z,99710.22
2022-07-31T15:35:11.280Z,99718.28
2022-07-31T15:37:41.129Z,99721.84
2022-07-31T15:40:12.214Z,99726.34
2022-07-31T15:42:42.324Z,99718.06
2022-07-31T15:45:16.862Z,99724.66
2022-07-31T15:47:44.810Z,99722.91
2022-07-31T15:50:15.080Z,99730.81
2022-07-31T15:52:42.701Z,99720.25
2022-07-31T15:55:10.584Z,99729.25
2022-07-31T15:57:38.643Z,99728.91
2022-07-31T16:00:10.500Z,99731.13
2022-07-31T16:02:38.190Z,99734.78
2022-07-31T16:05:11.960Z,99737.34
2022-07-31T16:08:28.941Z,99738.19
2022-07-31T16:10:36.515Z,99740.97
2022-07-31T16:13:03.827Z,99747.13
2022-07-31T16:15:31.993Z,99743.41
2022-07-31T16:17:58.952Z,99752.28
2022-07-31T16:20:27.086Z,99743.53
2022-07-31T16:22:58.722Z,99747.94
2022-07-31T16:25:27.490Z,99751.66
2022-07-31T16:27:55.232Z,99751.84
2022-07-31T16:30:23.100Z,99758.09
2022-07-31T16:32:50.249Z,99758.63
2022-07-31T16:35:17.403Z,99757.38
2022-07-31T16:37:52.555Z,99766.78
2022-07-31T16:40:29.150Z,99764.88
2022-07-31T16:43:48.266Z,99772.06
2022-07-31T16:45:55.537Z,99777.38
2022-07-31T16:48:23.209Z,99781.94
2022-07-31T16:50:54.201Z,99773.97
2022-07-31T16:54:11.312Z,99786.28
2022-07-31T16:56:15.830Z,99787.41
2022-07-31T16:58:44.138Z,99789.06
2022-07-31T17:01:57.079Z,99787.72
2022-07-31T17:04:03.603Z,99788.69
2022-07-31T17:06:36.459Z,99793.69
2022-07-31T17:09:17.208Z,99797.50
2022-07-31T17:11:48.246Z,99785.84
2022-07-31T17:14:17.726Z,99803.75
2022-07-31T17:16:48.142Z,99798.78
2022-07-31T17:19:43.029Z,99803.22
2022-07-31T17:22:04.957Z,99802.38
2022-07-31T17:24:32.052Z,99801.19
2022-07-31T17:26:59.787Z,99803.16
2022-07-31T17:29:26.775Z,99808.59
2022-07-31T17:31:53.775Z,99809.69
2022-07-31T17:34:20.732Z,99815.66
2022-07-31T17:36:50.196Z,99811.34
2022-07-31T17:39:17.511Z,99817.00
2022-07-31T17:41:44.698Z,99823.69
2022-07-31T17:44:11.746Z,99824.59
2022-07-31T17:46:48.285Z,99831.69
2022-07-31T17:49:19.513Z,99829.09
2022-07-31T17:51:57.923Z,99836.25
2022-07-31T17:54:35.363Z,99835.88
2022-07-31T17:57:02.699Z,99837.28
2022-07-31T17:59:29.879Z,99838.09
2022-07-31T18:02:03.230Z,99839.16
2022-07-31T18:04:33.078Z,99851.66
2022-07-31T18:07:01.758Z,99847.41
2022-07-31T18:09:29.054Z,99847.38
2022-07-31T18:11:57.544Z,99850.75
2022-07-31T18:14:25.078Z,99853.34
2022-07-31T18:16:53.187Z,99845.22
2022-07-31T18:19:22.208Z,99861.13
2022-07-31T18:21:50.191Z,99855.22
2022-07-31T18:24:17.430Z,99864.13
2022-07-31T18:26:44.462Z,99854.91
2022-07-31T18:29:11.597Z,99859.34
2022-07-31T18:31:38.955Z,99867.75
2022-07-31T18:34:07.720Z,99864.16
2022-07-31T18:36:35.323Z,99860.78
2022-07-31T18:39:04.737Z,99873.31
2022-07-31T18:41:34.073Z,99872.38
2022-07-31T18:44:01.206Z,99874.06
2022-07-31T18:46:28.498Z,99870.56
2022-07-31T18:48:56.680Z,99877.53
2022-07-31T18:51:28.874Z,99873.94
2022-07-31T18:53:56.483Z,99880.03
2022-07-31T18:56:24.993Z,99886.28
2022-07-31T18:58:53.415Z,99887.19
2022-07-31T19:01:21.573Z,99886.44
2022-07-31T19:03:49.471Z,99896.31
2022-07-31T19:06:17.223Z,99889.34
2022-07-31T19:08:44.341Z,99893.81
2022-07-31T19:11:12.277Z,99903.50
2022-07-31T19:13:39.292Z,99899.19
2022-07-31T19:16:06.772Z,99907.13
2022-07-31T19:18:34.158Z,99902.44
2022-07-31T19:21:21.286Z,99899.19
2022-07-31T19:23:49.593Z,99907.03
2022-07-31T19:26:16.759Z,99912.56
2022-07-31T19:28:44.162Z,99915.28
2022-07-31T19:31:13.672Z,99898.88
2022-07-31T19:33:41.153Z,99908.09
2022-07-31T19:36:10.632Z,99911.81
2022-07-31T19:38:37.810Z,99912.75
2022-07-31T19:41:04.830Z,99909.13
2022-07-31T19:43:33.288Z,99903.94
2022-07-31T19:46:10.531Z,99909.31
2022-07-31T19:48:48.588Z,99909.38
2022-07-31T19:51:16.241Z,99904.94
2022-07-31T19:53:44.552Z,99909.31
2022-07-31T19:56:18.144Z,99912.09
2022-07-31T19:58:47.712Z,99897.03
2022-07-31T20:01:14.702Z,99907.84
2022-07-31T20:03:41.929Z,99911.31
2022-07-31T20:06:08.963Z,99907.63
2022-07-31T20:08:36.216Z,99904.75
2022-07-31T20:11:05.445Z,99912.50
2022-07-31T20:13:34.577Z,99904.63
2022-07-31T20:16:02.268Z,99903.69
2022-07-31T20:18:30.644Z,99895.78
2022-07-31T20:21:03.405Z,99909.03
2022-07-31T20:23:34.038Z,99899.13
2022-07-31T20:26:01.497Z,99897.53
2022-07-31T20:28:28.576Z,99907.13
2022-07-31T20:30:55.584Z,99905.97
2022-07-31T20:33:22.741Z,99905.84
2022-07-31T20:35:50.507Z,99908.63
2022-07-31T20:38:19.601Z,99894.00
2022-07-31T20:40:53.667Z,99905.53
2022-07-31T20:43:27.896Z,99906.28
2022-07-31T20:45:58.060Z,99902.97
2022-07-31T20:48:32.041Z,99906.38
2022-07-31T20:51:01.684Z,99911.00
2022-07-31T20:53:30.302Z,99900.78
2022-07-31T20:55:58.055Z,99914.16
2022-07-31T20:58:26.861Z,99908.81
2022-07-31T21:00:54.332Z,99909.09
2022-07-31T21:03:21.991Z,99908.41
2022-07-31T21:05:49.371Z,99902.19
2022-07-31T21:08:17.897Z,99903.91
2022-07-31T21:10:45.455Z,99905.66
2022-07-31T21:13:12.711Z,99908.47
2022-07-31T21:15:43.584Z,99907.81
2022-07-31T21:18:19.643Z,99912.16
2022-07-31T21:20:50.751Z,99908.56
2022-07-31T21:23:21.872Z,99916.75
2022-07-31T21:25:49.694Z,99906.13
2022-07-31T21:28:16.899Z,99915.94
2022-07-31T21:30:44.102Z,99908.78
2022-07-31T21:33:11.460Z,99913.25
2022-07-31T21:35:40.164Z,99909.81
2022-07-31T21:38:11.795Z,99904.56
2022-07-31T21:40:40.509Z,99908.09
2022-07-31T21:43:09.175Z,99909.94
2022-07-31T21:45:43.439Z,99921.50
2022-07-31T21:48:25.200Z,99919.72
2022-07-31T21:50:53.261Z,99907.31
2022-07-31T21:53:20.555Z,99909.06
2022-07-31T21:55:47.547Z,99911.75
2022-07-31T21:58:14.680Z,99915.34
2022-07-31T22:00:41.833Z,99916.22
2022-07-31T22:03:08.918Z,99912.69
2022-07-31T22:05:54.860Z,99914.44
2022-07-31T22:08:21.911Z,99911.81
2022-07-31T22:10:51.735Z,99911.81
2022-07-31T22:13:20.013Z,99910.03
2022-07-31T22:15:58.263Z,99897.59
2022-07-31T22:18:33.107Z,99900.25
2022-07-31T22:21:03.087Z,99902.88
2022-07-31T22:23:30.512Z,99909.97
2022-07-31T22:25:58.251Z,99899.34
2022-07-31T22:28:26.997Z,99902.03
2022-07-31T22:30:56.939Z,99902.91
2022-07-31T22:33:24.571Z,99904.69
2022-07-31T22:35:58.580Z,99908.28
2022-07-31T22:38:29.331Z,99909.19
2022-07-31T22:40:57.054Z,99901.13
2022-07-31T22:44:10.877Z,99904.69
2022-07-31T22:46:14.462Z,99909.16
2022-07-31T22:48:41.678Z,99900.25
2022-07-31T22:51:10.740Z,99901.16
2022-07-31T22:53:41.456Z,99899.34
2022-07-31T22:56:08.465Z,99894.91
2022-07-31T22:58:35.490Z,99893.13
2022-07-31T23:01:02.474Z,99900.22
2022-07-31T23:03:29.515Z,99899.31
2022-07-31T23:06:03.049Z,99903.81
2022-07-31T23:08:43.928Z,99899.34
2022-07-31T23:11:10.948Z,99890.50
2022-07-31T23:13:39.832Z,99895.81
2022-07-31T23:16:06.841Z,99900.31
2022-07-31T23:18:34.245Z,99893.19
2022-07-31T23:21:01.186Z,99897.66
2022-07-31T23:23:28.198Z,99900.31
2022-07-31T23:25:55.135Z,99903.88
2022-07-31T23:28:22.116Z,99912.78
2022-07-31T23:30:49.076Z,99897.69
2022-07-31T23:33:16.985Z,99905.72
2022-07-31T23:35:44.293Z,99906.59
2022-07-31T23:38:12.115Z,99911.91
2022-07-31T23:40:39.102Z,99917.19
2022-07-31T23:43:06.079Z,99915.44
2022-07-31T23:45:33.078Z,99911.91
2022-07-31T23:48:00.097Z,99915.47
2022-07-31T23:50:27.756Z,99921.72
2022-07-31T23:52:54.704Z,99918.19
2022-07-31T23:55:22.060Z,99926.19
2022-07-31T23:57:51.089Z,99923.50
